sensor_id;sensor_type;location;lat;lon;timestamp;temperature;humidity
19943;DHT22;10133;50.956;17.276;2023-01-26T00:01:19;2.30;99.90
19943;DHT22;10133;50.956;17.276;2023-01-26T00:03:47;2.30;99.90
19943;DHT22;10133;50.956;17.276;2023-01-26T00:06:17;2.30;99.90
19943;DHT22;10133;50.956;17.276;2023-01-26T00:08:46;2.20;99.90
19943;DHT22;10133;50.956;17.276;2023-01-26T00:11:17;2.30;99.90
19943;DHT22;10133;50.956;17.276;2023-01-26T00:13:44;2.30;99.90
19943;DHT22;10133;50.956;17.276;2023-01-26T00:16:17;2.30;99.90
19943;DHT22;10133;50.956;17.276;2023-01-26T00:18:49;2.30;99.90
19943;DHT22;10133;50.956;17.276;2023-01-26T00:21:18;2.20;99.90
19943;DHT22;10133;50.956;17.276;2023-01-26T00:23:46;2.20;99.90
19943;DHT22;10133;50.956;17.276;2023-01-26T00:26:19;2.30;99.90
19943;DHT22;10133;50.956;17.276;2023-01-26T00:28:46;2.20;99.90
19943;DHT22;10133;50.956;17.276;2023-01-26T00:31:16;2.20;99.90
19943;DHT22;10133;50.956;17.276;2023-01-26T00:33:43;2.20;99.90
19943;DHT22;10133;50.956;17.276;2023-01-26T00:36:10;2.30;99.90
19943;DHT22;10133;50.956;17.276;2023-01-26T00:38:38;2.30;99.90
19943;DHT22;10133;50.956;17.276;2023-01-26T00:41:05;2.20;99.90
19943;DHT22;10133;50.956;17.276;2023-01-26T00:43:32;2.30;99.90
19943;DHT22;10133;50.956;17.276;2023-01-26T00:45:59;2.30;99.90
19943;DHT22;10133;50.956;17.276;2023-01-26T00:48:26;2.30;99.90
19943;DHT22;10133;50.956;17.276;2023-01-26T00:50:53;2.20;99.90
19943;DHT22;10133;50.956;17.276;2023-01-26T00:53:19;2.30;99.90
19943;DHT22;10133;50.956;17.276;2023-01-26T00:55:46;2.30;99.90
19943;DHT22;10133;50.956;17.276;2023-01-26T00:58:13;2.20;99.90
19943;DHT22;10133;50.956;17.276;2023-01-26T01:00:40;2.30;99.90
19943;DHT22;10133;50.956;17.276;2023-01-26T01:03:07;2.30;99.90
19943;DHT22;10133;50.956;17.276;2023-01-26T01:05:34;2.30;99.90
19943;DHT22;10133;50.956;17.276;2023-01-26T01:08:01;2.20;99.90
19943;DHT22;10133;50.956;17.276;2023-01-26T01:10:29;2.20;99.90
19943;DHT22;10133;50.956;17.276;2023-01-26T01:12:55;2.20;99.90
19943;DHT22;10133;50.956;17.276;2023-01-26T01:15:23;2.20;99.90
19943;DHT22;10133;50.956;17.276;2023-01-26T01:17:51;2.20;99.90
19943;DHT22;10133;50.956;17.276;2023-01-26T01:20:18;2.20;99.90
19943;DHT22;10133;50.956;17.276;2023-01-26T01:22:45;2.20;99.90
19943;DHT22;10133;50.956;17.276;2023-01-26T01:25:12;2.20;99.90
19943;DHT22;10133;50.956;17.276;2023-01-26T01:27:39;2.10;99.90
19943;DHT22;10133;50.956;17.276;2023-01-26T01:30:06;2.10;99.90
19943;DHT22;10133;50.956;17.276;2023-01-26T01:32:35;2.10;99.90
19943;DHT22;10133;50.956;17.276;2023-01-26T01:35:02;2.00;99.90
19943;DHT22;10133;50.956;17.276;2023-01-26T01:37:29;2.00;99.90
19943;DHT22;10133;50.956;17.276;2023-01-26T01:39:56;2.00;99.90
19943;DHT22;10133;50.956;17.276;2023-01-26T01:42:24;2.10;99.90
19943;DHT22;10133;50.956;17.276;2023-01-26T01:47:53;2.10;99.90
19943;DHT22;10133;50.956;17.276;2023-01-26T01:50:23;2.10;99.90
19943;DHT22;10133;50.956;17.276;2023-01-26T01:52:53;2.20;99.90
19943;DHT22;10133;50.956;17.276;2023-01-26T01:55:20;2.20;99.90
19943;DHT22;10133;50.956;17.276;2023-01-26T01:57:57;2.20;99.90
19943;DHT22;10133;50.956;17.276;2023-01-26T02:00:26;2.20;99.90
19943;DHT22;10133;50.956;17.276;2023-01-26T02:03:02;2.20;99.90
19943;DHT22;10133;50.956;17.276;2023-01-26T02:05:52;2.20;99.90
19943;DHT22;10133;50.956;17.276;2023-01-26T02:08:24;2.20;99.90
19943;DHT22;10133;50.956;17.276;2023-01-26T02:10:54;2.20;99.90
19943;DHT22;10133;50.956;17.276;2023-01-26T02:13:21;2.20;99.90
19943;DHT22;10133;50.956;17.276;2023-01-26T02:15:50;2.20;99.90
19943;DHT22;10133;50.956;17.276;2023-01-26T02:18:17;2.20;99.90
19943;DHT22;10133;50.956;17.276;2023-01-26T02:21:13;2.20;99.90
19943;DHT22;10133;50.956;17.276;2023-01-26T02:24:25;2.10;99.90
19943;DHT22;10133;50.956;17.276;2023-01-26T02:26:54;2.10;99.90
19943;DHT22;10133;50.956;17.276;2023-01-26T02:29:22;2.10;99.90
19943;DHT22;10133;50.956;17.276;2023-01-26T02:31:49;2.10;99.90
19943;DHT22;10133;50.956;17.276;2023-01-26T02:34:16;2.10;99.90
19943;DHT22;10133;50.956;17.276;2023-01-26T02:36:43;2.10;99.90
19943;DHT22;10133;50.956;17.276;2023-01-26T02:39:40;2.10;99.90
19943;DHT22;10133;50.956;17.276;2023-01-26T02:42:09;2.20;99.90
19943;DHT22;10133;50.956;17.276;2023-01-26T02:44:55;2.10;99.90
19943;DHT22;10133;50.956;17.276;2023-01-26T02:47:22;2.10;99.90
19943;DHT22;10133;50.956;17.276;2023-01-26T02:49:49;2.10;99.90
19943;DHT22;10133;50.956;17.276;2023-01-26T02:52:21;2.10;99.90
19943;DHT22;10133;50.956;17.276;2023-01-26T02:54:48;2.10;99.90
19943;DHT22;10133;50.956;17.276;2023-01-26T02:57:34;2.10;99.90
19943;DHT22;10133;50.956;17.276;2023-01-26T03:00:04;2.10;99.90
19943;DHT22;10133;50.956;17.276;2023-01-26T03:02:31;2.10;99.90
19943;DHT22;10133;50.956;17.276;2023-01-26T03:04:58;2.10;99.90
19943;DHT22;10133;50.956;17.276;2023-01-26T03:07:25;2.10;99.90
19943;DHT22;10133;50.956;17.276;2023-01-26T03:09:52;2.10;99.90
19943;DHT22;10133;50.956;17.276;2023-01-26T03:12:19;2.10;99.90
19943;DHT22;10133;50.956;17.276;2023-01-26T03:14:46;2.10;99.90
19943;DHT22;10133;50.956;17.276;2023-01-26T03:17:33;2.10;99.90
19943;DHT22;10133;50.956;17.276;2023-01-26T03:19:59;2.10;99.90
19943;DHT22;10133;50.956;17.276;2023-01-26T03:22:45;2.10;99.90
19943;DHT22;10133;50.956;17.276;2023-01-26T03:25:30;2.00;99.90
19943;DHT22;10133;50.956;17.276;2023-01-26T03:28:16;2.00;99.90
19943;DHT22;10133;50.956;17.276;2023-01-26T03:30:48;2.00;99.90
19943;DHT22;10133;50.956;17.276;2023-01-26T03:33:16;2.00;99.90
19943;DHT22;10133;50.956;17.276;2023-01-26T03:35:44;2.00;99.90
19943;DHT22;10133;50.956;17.276;2023-01-26T03:38:11;2.00;99.90
19943;DHT22;10133;50.956;17.276;2023-01-26T03:40:38;1.90;99.90
19943;DHT22;10133;50.956;17.276;2023-01-26T03:43:24;1.90;99.90
19943;DHT22;10133;50.956;17.276;2023-01-26T03:46:09;2.00;99.90
19943;DHT22;10133;50.956;17.276;2023-01-26T03:48:55;1.90;99.90
19943;DHT22;10133;50.956;17.276;2023-01-26T03:51:40;1.90;99.90
19943;DHT22;10133;50.956;17.276;2023-01-26T03:54:26;1.90;99.90
19943;DHT22;10133;50.956;17.276;2023-01-26T03:57:11;1.90;99.90
19943;DHT22;10133;50.956;17.276;2023-01-26T03:59:38;1.90;99.90
19943;DHT22;10133;50.956;17.276;2023-01-26T04:02:07;1.90;99.90
19943;DHT22;10133;50.956;17.276;2023-01-26T04:04:53;1.90;99.90
19943;DHT22;10133;50.956;17.276;2023-01-26T04:07:39;1.80;99.90
19943;DHT22;10133;50.956;17.276;2023-01-26T04:10:25;1.80;99.90
19943;DHT22;10133;50.956;17.276;2023-01-26T04:12:52;1.80;99.90
19943;DHT22;10133;50.956;17.276;2023-01-26T04:15:38;1.80;99.90
19943;DHT22;10133;50.956;17.276;2023-01-26T04:18:23;1.80;99.90
19943;DHT22;10133;50.956;17.276;2023-01-26T04:21:08;1.80;99.90
19943;DHT22;10133;50.956;17.276;2023-01-26T04:23:56;1.80;99.90
19943;DHT22;10133;50.956;17.276;2023-01-26T04:26:25;1.80;99.90
19943;DHT22;10133;50.956;17.276;2023-01-26T04:28:52;1.80;99.90
19943;DHT22;10133;50.956;17.276;2023-01-26T04:31:19;1.80;99.90
19943;DHT22;10133;50.956;17.276;2023-01-26T04:33:46;1.80;99.90
19943;DHT22;10133;50.956;17.276;2023-01-26T04:36:13;1.80;99.90
19943;DHT22;10133;50.956;17.276;2023-01-26T04:38:40;1.80;99.90
19943;DHT22;10133;50.956;17.276;2023-01-26T04:41:07;1.80;99.90
19943;DHT22;10133;50.956;17.276;2023-01-26T04:43:33;1.80;99.90
19943;DHT22;10133;50.956;17.276;2023-01-26T04:46:03;1.80;99.90
19943;DHT22;10133;50.956;17.276;2023-01-26T04:48:30;1.80;99.90
19943;DHT22;10133;50.956;17.276;2023-01-26T04:51:01;1.80;99.90
19943;DHT22;10133;50.956;17.276;2023-01-26T04:53:28;1.80;99.90
19943;DHT22;10133;50.956;17.276;2023-01-26T04:55:55;1.80;99.90
19943;DHT22;10133;50.956;17.276;2023-01-26T04:58:22;1.80;99.90
19943;DHT22;10133;50.956;17.276;2023-01-26T05:00:53;1.80;99.90
19943;DHT22;10133;50.956;17.276;2023-01-26T05:03:21;1.80;99.90
19943;DHT22;10133;50.956;17.276;2023-01-26T05:05:50;1.80;99.90
19943;DHT22;10133;50.956;17.276;2023-01-26T05:08:18;1.80;99.90
19943;DHT22;10133;50.956;17.276;2023-01-26T05:10:45;1.70;99.90
19943;DHT22;10133;50.956;17.276;2023-01-26T05:13:13;1.70;99.90
19943;DHT22;10133;50.956;17.276;2023-01-26T05:15:40;1.70;99.90
19943;DHT22;10133;50.956;17.276;2023-01-26T05:18:08;1.70;99.90
19943;DHT22;10133;50.956;17.276;2023-01-26T05:20:35;1.70;99.90
19943;DHT22;10133;50.956;17.276;2023-01-26T05:23:02;1.70;99.90
19943;DHT22;10133;50.956;17.276;2023-01-26T05:25:29;1.70;99.90
19943;DHT22;10133;50.956;17.276;2023-01-26T05:27:56;1.70;99.90
19943;DHT22;10133;50.956;17.276;2023-01-26T05:30:23;1.60;99.90
19943;DHT22;10133;50.956;17.276;2023-01-26T05:32:49;1.60;99.90
19943;DHT22;10133;50.956;17.276;2023-01-26T05:35:16;1.60;99.90
19943;DHT22;10133;50.956;17.276;2023-01-26T05:37:43;1.60;99.90
19943;DHT22;10133;50.956;17.276;2023-01-26T05:40:11;1.60;99.90
19943;DHT22;10133;50.956;17.276;2023-01-26T05:42:39;1.60;99.90
19943;DHT22;10133;50.956;17.276;2023-01-26T05:45:07;1.60;99.90
19943;DHT22;10133;50.956;17.276;2023-01-26T05:47:34;1.60;99.90
19943;DHT22;10133;50.956;17.276;2023-01-26T05:50:01;1.60;99.90
19943;DHT22;10133;50.956;17.276;2023-01-26T05:52:28;1.60;99.90
19943;DHT22;10133;50.956;17.276;2023-01-26T05:54:55;1.50;99.90
19943;DHT22;10133;50.956;17.276;2023-01-26T05:57:22;1.50;99.90
19943;DHT22;10133;50.956;17.276;2023-01-26T05:59:49;1.50;99.90
19943;DHT22;10133;50.956;17.276;2023-01-26T06:02:16;1.50;99.90
19943;DHT22;10133;50.956;17.276;2023-01-26T06:04:43;1.50;99.90
19943;DHT22;10133;50.956;17.276;2023-01-26T06:07:10;1.40;99.90
19943;DHT22;10133;50.956;17.276;2023-01-26T06:09:39;1.40;99.90
19943;DHT22;10133;50.956;17.276;2023-01-26T06:12:11;1.40;99.90
19943;DHT22;10133;50.956;17.276;2023-01-26T06:14:39;1.40;99.90
19943;DHT22;10133;50.956;17.276;2023-01-26T06:17:06;1.40;99.90
19943;DHT22;10133;50.956;17.276;2023-01-26T06:19:33;1.40;99.90
19943;DHT22;10133;50.956;17.276;2023-01-26T06:22:02;1.40;99.90
19943;DHT22;10133;50.956;17.276;2023-01-26T06:24:29;1.40;99.90
19943;DHT22;10133;50.956;17.276;2023-01-26T06:26:56;1.40;99.90
19943;DHT22;10133;50.956;17.276;2023-01-26T06:29:23;1.40;99.90
19943;DHT22;10133;50.956;17.276;2023-01-26T06:31:50;1.40;99.90
19943;DHT22;10133;50.956;17.276;2023-01-26T06:34:16;1.40;99.90
19943;DHT22;10133;50.956;17.276;2023-01-26T06:36:43;1.30;99.90
19943;DHT22;10133;50.956;17.276;2023-01-26T06:39:11;1.40;99.90
19943;DHT22;10133;50.956;17.276;2023-01-26T06:41:39;1.30;99.90
19943;DHT22;10133;50.956;17.276;2023-01-26T06:44:07;1.30;99.90
19943;DHT22;10133;50.956;17.276;2023-01-26T06:46:34;1.30;99.90
19943;DHT22;10133;50.956;17.276;2023-01-26T06:49:02;1.30;99.90
19943;DHT22;10133;50.956;17.276;2023-01-26T06:54:32;1.40;99.90
19943;DHT22;10133;50.956;17.276;2023-01-26T06:56:59;1.40;99.90
19943;DHT22;10133;50.956;17.276;2023-01-26T06:59:26;1.40;99.90
19943;DHT22;10133;50.956;17.276;2023-01-26T07:01:53;1.40;99.90
19943;DHT22;10133;50.956;17.276;2023-01-26T07:04:20;1.40;99.90
19943;DHT22;10133;50.956;17.276;2023-01-26T07:06:50;1.40;99.90
19943;DHT22;10133;50.956;17.276;2023-01-26T07:09:17;1.40;99.90
19943;DHT22;10133;50.956;17.276;2023-01-26T07:11:44;1.40;99.90
19943;DHT22;10133;50.956;17.276;2023-01-26T07:14:11;1.40;99.90
19943;DHT22;10133;50.956;17.276;2023-01-26T07:16:38;1.50;99.90
19943;DHT22;10133;50.956;17.276;2023-01-26T07:19:05;1.50;99.90
19943;DHT22;10133;50.956;17.276;2023-01-26T07:21:32;1.50;99.90
19943;DHT22;10133;50.956;17.276;2023-01-26T07:23:58;1.50;99.90
19943;DHT22;10133;50.956;17.276;2023-01-26T07:26:25;1.60;99.90
19943;DHT22;10133;50.956;17.276;2023-01-26T07:28:52;1.60;99.90
19943;DHT22;10133;50.956;17.276;2023-01-26T07:31:19;1.60;99.90
19943;DHT22;10133;50.956;17.276;2023-01-26T07:33:46;1.60;99.90
19943;DHT22;10133;50.956;17.276;2023-01-26T07:36:13;1.60;99.90
19943;DHT22;10133;50.956;17.276;2023-01-26T07:38:40;1.60;99.90
19943;DHT22;10133;50.956;17.276;2023-01-26T07:41:10;1.70;99.90
19943;DHT22;10133;50.956;17.276;2023-01-26T07:43:38;1.70;99.90
19943;DHT22;10133;50.956;17.276;2023-01-26T07:46:05;1.70;99.90
19943;DHT22;10133;50.956;17.276;2023-01-26T07:48:32;1.70;99.90
19943;DHT22;10133;50.956;17.276;2023-01-26T07:51:01;1.70;99.90
19943;DHT22;10133;50.956;17.276;2023-01-26T07:53:30;1.70;99.90
19943;DHT22;10133;50.956;17.276;2023-01-26T07:58:33;1.80;99.90
19943;DHT22;10133;50.956;17.276;2023-01-26T08:01:12;1.80;99.90
19943;DHT22;10133;50.956;17.276;2023-01-26T08:03:40;1.80;99.90
19943;DHT22;10133;50.956;17.276;2023-01-26T08:06:07;1.80;99.90
19943;DHT22;10133;50.956;17.276;2023-01-26T08:08:40;1.90;99.90
19943;DHT22;10133;50.956;17.276;2023-01-26T08:11:07;1.90;99.90
19943;DHT22;10133;50.956;17.276;2023-01-26T08:13:34;1.90;99.90
19943;DHT22;10133;50.956;17.276;2023-01-26T08:16:11;1.90;99.90
19943;DHT22;10133;50.956;17.276;2023-01-26T08:18:40;1.90;99.90
19943;DHT22;10133;50.956;17.276;2023-01-26T08:21:08;1.90;99.90
19943;DHT22;10133;50.956;17.276;2023-01-26T08:23:35;2.00;99.90
19943;DHT22;10133;50.956;17.276;2023-01-26T08:26:20;2.00;99.90
19943;DHT22;10133;50.956;17.276;2023-01-26T08:28:50;2.00;99.90
19943;DHT22;10133;50.956;17.276;2023-01-26T08:31:19;2.00;99.90
19943;DHT22;10133;50.956;17.276;2023-01-26T08:33:48;2.00;99.90
19943;DHT22;10133;50.956;17.276;2023-01-26T08:36:20;2.00;99.90
19943;DHT22;10133;50.956;17.276;2023-01-26T08:38:49;2.00;99.90
19943;DHT22;10133;50.956;17.276;2023-01-26T08:41:16;2.00;99.90
19943;DHT22;10133;50.956;17.276;2023-01-26T08:43:43;2.10;99.90
19943;DHT22;10133;50.956;17.276;2023-01-26T08:46:10;2.10;99.90
19943;DHT22;10133;50.956;17.276;2023-01-26T08:48:37;2.10;99.90
19943;DHT22;10133;50.956;17.276;2023-01-26T08:51:06;2.20;99.90
19943;DHT22;10133;50.956;17.276;2023-01-26T08:53:34;2.20;99.90
19943;DHT22;10133;50.956;17.276;2023-01-26T08:56:06;2.20;99.90
19943;DHT22;10133;50.956;17.276;2023-01-26T08:58:34;2.20;99.90
19943;DHT22;10133;50.956;17.276;2023-01-26T09:01:10;2.30;99.90
19943;DHT22;10133;50.956;17.276;2023-01-26T09:03:37;2.30;99.90
19943;DHT22;10133;50.956;17.276;2023-01-26T09:06:06;2.30;99.90
19943;DHT22;10133;50.956;17.276;2023-01-26T09:08:33;2.30;99.90
19943;DHT22;10133;50.956;17.276;2023-01-26T09:11:01;2.20;99.90
19943;DHT22;10133;50.956;17.276;2023-01-26T09:13:28;2.20;99.90
19943;DHT22;10133;50.956;17.276;2023-01-26T09:15:55;2.30;99.90
19943;DHT22;10133;50.956;17.276;2023-01-26T09:18:21;2.20;99.90
19943;DHT22;10133;50.956;17.276;2023-01-26T09:20:48;2.30;99.90
19943;DHT22;10133;50.956;17.276;2023-01-26T09:23:16;2.30;99.90
19943;DHT22;10133;50.956;17.276;2023-01-26T09:25:44;2.30;99.90
19943;DHT22;10133;50.956;17.276;2023-01-26T09:28:10;2.30;99.90
19943;DHT22;10133;50.956;17.276;2023-01-26T09:30:37;2.30;99.90
19943;DHT22;10133;50.956;17.276;2023-01-26T09:33:05;2.30;99.90
19943;DHT22;10133;50.956;17.276;2023-01-26T09:35:32;2.40;99.90
19943;DHT22;10133;50.956;17.276;2023-01-26T09:37:59;2.40;99.90
19943;DHT22;10133;50.956;17.276;2023-01-26T09:40:54;2.40;99.90
19943;DHT22;10133;50.956;17.276;2023-01-26T09:43:44;2.40;99.90
19943;DHT22;10133;50.956;17.276;2023-01-26T09:49:09;2.40;99.90
19943;DHT22;10133;50.956;17.276;2023-01-26T09:51:53;2.40;99.90
19943;DHT22;10133;50.956;17.276;2023-01-26T09:57:00;2.50;99.90
19943;DHT22;10133;50.956;17.276;2023-01-26T09:59:41;2.50;99.90
19943;DHT22;10133;50.956;17.276;2023-01-26T10:02:32;2.50;99.90
19943;DHT22;10133;50.956;17.276;2023-01-26T10:05:31;2.50;99.90
19943;DHT22;10133;50.956;17.276;2023-01-26T10:07:59;2.50;99.90
19943;DHT22;10133;50.956;17.276;2023-01-26T10:10:29;2.60;99.90
19943;DHT22;10133;50.956;17.276;2023-01-26T10:12:58;2.60;99.90
19943;DHT22;10133;50.956;17.276;2023-01-26T10:17:57;2.60;99.90
19943;DHT22;10133;50.956;17.276;2023-01-26T10:20:32;2.50;99.90
19943;DHT22;10133;50.956;17.276;2023-01-26T10:25:45;2.60;99.90
19943;DHT22;10133;50.956;17.276;2023-01-26T10:28:18;2.60;99.90
19943;DHT22;10133;50.956;17.276;2023-01-26T10:30:48;2.60;99.90
19943;DHT22;10133;50.956;17.276;2023-01-26T10:33:34;2.60;99.90
19943;DHT22;10133;50.956;17.276;2023-01-26T10:36:04;2.60;99.90
19943;DHT22;10133;50.956;17.276;2023-01-26T10:41:04;2.70;99.90
19943;DHT22;10133;50.956;17.276;2023-01-26T10:43:35;2.70;99.90
19943;DHT22;10133;50.956;17.276;2023-01-26T10:46:03;2.60;99.90
19943;DHT22;10133;50.956;17.276;2023-01-26T10:48:30;2.60;99.90
19943;DHT22;10133;50.956;17.276;2023-01-26T10:51:14;2.60;99.90
19943;DHT22;10133;50.956;17.276;2023-01-26T10:53:41;2.60;99.90
19943;DHT22;10133;50.956;17.276;2023-01-26T10:56:13;2.50;99.90
19943;DHT22;10133;50.956;17.276;2023-01-26T10:58:46;2.50;99.90
19943;DHT22;10133;50.956;17.276;2023-01-26T11:01:16;2.40;99.90
19943;DHT22;10133;50.956;17.276;2023-01-26T11:04:13;2.40;99.90
19943;DHT22;10133;50.956;17.276;2023-01-26T11:06:41;2.40;99.90
19943;DHT22;10133;50.956;17.276;2023-01-26T11:09:22;2.50;99.90
19943;DHT22;10133;50.956;17.276;2023-01-26T11:12:02;2.50;99.90
19943;DHT22;10133;50.956;17.276;2023-01-26T11:14:31;2.50;99.90
19943;DHT22;10133;50.956;17.276;2023-01-26T11:17:20;2.50;99.90
19943;DHT22;10133;50.956;17.276;2023-01-26T11:20:06;2.50;99.90
19943;DHT22;10133;50.956;17.276;2023-01-26T11:51:19;2.30;99.90
19943;DHT22;10133;50.956;17.276;2023-01-26T11:54:09;2.30;99.90
19943;DHT22;10133;50.956;17.276;2023-01-26T11:59:52;2.20;99.90
19943;DHT22;10133;50.956;17.276;2023-01-26T12:02:28;2.30;99.90
19943;DHT22;10133;50.956;17.276;2023-01-26T12:05:01;2.20;99.90
19943;DHT22;10133;50.956;17.276;2023-01-26T12:07:56;2.20;99.90
19943;DHT22;10133;50.956;17.276;2023-01-26T12:16:52;2.20;99.90
19943;DHT22;10133;50.956;17.276;2023-01-26T12:20:02;2.20;99.90
19943;DHT22;10133;50.956;17.276;2023-01-26T12:22:39;2.20;99.90
19943;DHT22;10133;50.956;17.276;2023-01-26T12:33:11;2.20;99.90
19943;DHT22;10133;50.956;17.276;2023-01-26T12:38:30;2.30;99.90
19943;DHT22;10133;50.956;17.276;2023-01-26T12:41:09;2.30;99.90
19943;DHT22;10133;50.956;17.276;2023-01-26T12:43:43;2.30;99.90
19943;DHT22;10133;50.956;17.276;2023-01-26T12:46:13;2.30;99.90
19943;DHT22;10133;50.956;17.276;2023-01-26T12:48:48;2.30;99.90
19943;DHT22;10133;50.956;17.276;2023-01-26T12:51:29;2.30;99.90
19943;DHT22;10133;50.956;17.276;2023-01-26T12:54:17;2.30;99.90
19943;DHT22;10133;50.956;17.276;2023-01-26T12:56:50;2.40;99.90
19943;DHT22;10133;50.956;17.276;2023-01-26T12:59:34;2.30;99.90
19943;DHT22;10133;50.956;17.276;2023-01-26T13:02:29;2.40;99.90
19943;DHT22;10133;50.956;17.276;2023-01-26T13:04:58;2.40;99.90
19943;DHT22;10133;50.956;17.276;2023-01-26T13:07:35;2.30;99.90
19943;DHT22;10133;50.956;17.276;2023-01-26T13:10:42;2.30;99.90
19943;DHT22;10133;50.956;17.276;2023-01-26T13:15:43;2.40;99.90
19943;DHT22;10133;50.956;17.276;2023-01-26T13:18:15;2.40;99.90
19943;DHT22;10133;50.956;17.276;2023-01-26T13:20:47;2.40;99.90
19943;DHT22;10133;50.956;17.276;2023-01-26T13:23:39;2.40;99.90
19943;DHT22;10133;50.956;17.276;2023-01-26T13:26:14;2.40;99.90
19943;DHT22;10133;50.956;17.276;2023-01-26T13:28:42;2.30;99.90
19943;DHT22;10133;50.956;17.276;2023-01-26T13:31:10;2.30;99.90
19943;DHT22;10133;50.956;17.276;2023-01-26T13:33:38;2.30;99.90
19943;DHT22;10133;50.956;17.276;2023-01-26T13:36:14;2.30;99.90
19943;DHT22;10133;50.956;17.276;2023-01-26T13:38:46;2.20;99.90
19943;DHT22;10133;50.956;17.276;2023-01-26T13:41:20;2.20;99.90
19943;DHT22;10133;50.956;17.276;2023-01-26T13:43:51;2.20;99.90
19943;DHT22;10133;50.956;17.276;2023-01-26T13:48:48;2.20;99.90
19943;DHT22;10133;50.956;17.276;2023-01-26T13:51:17;2.20;99.90
19943;DHT22;10133;50.956;17.276;2023-01-26T13:54:10;2.20;99.90
19943;DHT22;10133;50.956;17.276;2023-01-26T13:56:42;2.20;99.90
19943;DHT22;10133;50.956;17.276;2023-01-26T13:59:15;2.20;99.90
19943;DHT22;10133;50.956;17.276;2023-01-26T14:01:48;2.10;99.90
19943;DHT22;10133;50.956;17.276;2023-01-26T14:04:21;2.10;99.90
19943;DHT22;10133;50.956;17.276;2023-01-26T14:07:11;2.10;99.90
19943;DHT22;10133;50.956;17.276;2023-01-26T14:09:49;2.10;99.90
19943;DHT22;10133;50.956;17.276;2023-01-26T14:12:22;2.10;99.90
19943;DHT22;10133;50.956;17.276;2023-01-26T14:14:54;2.10;99.90
19943;DHT22;10133;50.956;17.276;2023-01-26T14:19:51;2.10;99.90
19943;DHT22;10133;50.956;17.276;2023-01-26T14:22:18;2.10;99.90
19943;DHT22;10133;50.956;17.276;2023-01-26T14:24:49;2.00;99.90
19943;DHT22;10133;50.956;17.276;2023-01-26T14:29:56;2.00;99.90
19943;DHT22;10133;50.956;17.276;2023-01-26T14:32:23;2.00;99.90
19943;DHT22;10133;50.956;17.276;2023-01-26T14:34:53;1.90;99.90
19943;DHT22;10133;50.956;17.276;2023-01-26T14:37:20;1.90;99.90
19943;DHT22;10133;50.956;17.276;2023-01-26T14:39:47;1.90;99.90
19943;DHT22;10133;50.956;17.276;2023-01-26T14:42:16;1.90;99.90
19943;DHT22;10133;50.956;17.276;2023-01-26T14:44:44;1.90;99.90
19943;DHT22;10133;50.956;17.276;2023-01-26T14:50:00;1.90;99.90
19943;DHT22;10133;50.956;17.276;2023-01-26T14:52:32;1.90;99.90
19943;DHT22;10133;50.956;17.276;2023-01-26T14:57:38;1.90;99.90
19943;DHT22;10133;50.956;17.276;2023-01-26T15:00:05;1.90;99.90
19943;DHT22;10133;50.956;17.276;2023-01-26T15:02:39;1.90;99.90
19943;DHT22;10133;50.956;17.276;2023-01-26T15:05:17;1.90;99.90
19943;DHT22;10133;50.956;17.276;2023-01-26T15:07:53;1.90;99.90
19943;DHT22;10133;50.956;17.276;2023-01-26T15:10:33;1.90;99.90
19943;DHT22;10133;50.956;17.276;2023-01-26T15:15:38;1.90;99.90
19943;DHT22;10133;50.956;17.276;2023-01-26T15:20:43;1.80;99.90
19943;DHT22;10133;50.956;17.276;2023-01-26T15:23:29;1.80;99.90
19943;DHT22;10133;50.956;17.276;2023-01-26T15:26:36;1.70;99.90
19943;DHT22;10133;50.956;17.276;2023-01-26T15:28:58;1.70;99.90
19943;DHT22;10133;50.956;17.276;2023-01-26T15:31:37;1.70;99.90
19943;DHT22;10133;50.956;17.276;2023-01-26T15:34:25;1.70;99.90
19943;DHT22;10133;50.956;17.276;2023-01-26T15:36:52;1.70;99.90
19943;DHT22;10133;50.956;17.276;2023-01-26T15:39:19;1.70;99.90
19943;DHT22;10133;50.956;17.276;2023-01-26T15:42:10;1.70;99.90
19943;DHT22;10133;50.956;17.276;2023-01-26T15:44:38;1.70;99.90
19943;DHT22;10133;50.956;17.276;2023-01-26T15:47:10;1.70;99.90
19943;DHT22;10133;50.956;17.276;2023-01-26T15:49:38;1.70;99.90
19943;DHT22;10133;50.956;17.276;2023-01-26T15:52:15;1.70;99.90
19943;DHT22;10133;50.956;17.276;2023-01-26T15:54:42;1.70;99.90
19943;DHT22;10133;50.956;17.276;2023-01-26T15:57:12;1.70;99.90
19943;DHT22;10133;50.956;17.276;2023-01-26T15:59:40;1.70;99.90
19943;DHT22;10133;50.956;17.276;2023-01-26T16:02:17;1.70;99.90
19943;DHT22;10133;50.956;17.276;2023-01-26T16:04:45;1.70;99.90
19943;DHT22;10133;50.956;17.276;2023-01-26T16:07:16;1.70;99.90
19943;DHT22;10133;50.956;17.276;2023-01-26T16:09:44;1.70;99.90
19943;DHT22;10133;50.956;17.276;2023-01-26T16:12:13;1.70;99.90
19943;DHT22;10133;50.956;17.276;2023-01-26T16:14:56;1.70;99.90
19943;DHT22;10133;50.956;17.276;2023-01-26T16:17:23;1.70;99.90
19943;DHT22;10133;50.956;17.276;2023-01-26T16:19:50;1.70;99.90
19943;DHT22;10133;50.956;17.276;2023-01-26T16:22:17;1.70;99.90
19943;DHT22;10133;50.956;17.276;2023-01-26T16:24:45;1.70;99.90
19943;DHT22;10133;50.956;17.276;2023-01-26T16:27:12;1.70;99.90
19943;DHT22;10133;50.956;17.276;2023-01-26T16:29:39;1.70;99.90
19943;DHT22;10133;50.956;17.276;2023-01-26T16:32:30;1.70;99.90
19943;DHT22;10133;50.956;17.276;2023-01-26T16:34:57;1.70;99.90
19943;DHT22;10133;50.956;17.276;2023-01-26T16:37:24;1.70;99.90
19943;DHT22;10133;50.956;17.276;2023-01-26T16:39:51;1.60;99.90
19943;DHT22;10133;50.956;17.276;2023-01-26T16:42:19;1.60;99.90
19943;DHT22;10133;50.956;17.276;2023-01-26T16:44:47;1.60;99.90
19943;DHT22;10133;50.956;17.276;2023-01-26T16:47:14;1.70;99.90
19943;DHT22;10133;50.956;17.276;2023-01-26T16:49:41;1.60;99.90
19943;DHT22;10133;50.956;17.276;2023-01-26T16:52:08;1.70;99.90
19943;DHT22;10133;50.956;17.276;2023-01-26T16:54:35;1.70;99.90
19943;DHT22;10133;50.956;17.276;2023-01-26T16:57:02;1.70;99.90
19943;DHT22;10133;50.956;17.276;2023-01-26T16:59:29;1.70;99.90
19943;DHT22;10133;50.956;17.276;2023-01-26T17:01:57;1.70;99.90
19943;DHT22;10133;50.956;17.276;2023-01-26T17:04:24;1.60;99.90
19943;DHT22;10133;50.956;17.276;2023-01-26T17:06:51;1.60;99.90
19943;DHT22;10133;50.956;17.276;2023-01-26T17:09:17;1.60;99.90
19943;DHT22;10133;50.956;17.276;2023-01-26T17:11:46;1.60;99.90
19943;DHT22;10133;50.956;17.276;2023-01-26T17:14:13;1.60;99.90
19943;DHT22;10133;50.956;17.276;2023-01-26T17:16:40;1.60;99.90
19943;DHT22;10133;50.956;17.276;2023-01-26T17:19:07;1.60;99.90
19943;DHT22;10133;50.956;17.276;2023-01-26T17:21:35;1.60;99.90
19943;DHT22;10133;50.956;17.276;2023-01-26T17:24:02;1.60;99.90
19943;DHT22;10133;50.956;17.276;2023-01-26T17:26:29;1.60;99.90
19943;DHT22;10133;50.956;17.276;2023-01-26T17:28:56;1.60;99.90